Time;durP1;ratioP1;P1;durP2;ratioP2;P2;SDS_P1;SDS_P2;PMS_P1;PMS_P2;Temp;Humidity;BMP_temperature;BMP_pressure;BME280_temperature;BME280_humidity;BME280_pressure;Samples;Min_cycle;Max_cycle;Signal;HPM_P1;HPM_P2
2021/06/19 00:00:38;;;;;;;;;0.00;0.00;;;;;22.00;59.39;101124.78;5054575;28;45487;-78
2021/06/19 00:03:04;;;;;;;;;0.00;0.00;;;;;21.90;59.25;101105.66;5055852;28;45431;-78
2021/06/19 00:05:29;;;;;;;;;0.00;0.00;;;;;22.03;59.33;101126.47;5045010;28;46651;-78
2021/06/19 00:07:56;;;;;;;;;0.00;0.00;;;;;22.05;59.11;101129.06;5058680;28;45465;-78
2021/06/19 00:10:22;;;;;;;;;0.00;0.00;;;;;22.07;59.22;101130.75;5056952;28;45485;-79
2021/06/19 00:12:49;;;;;;;;;0.00;0.00;;;;;22.10;59.02;101138.59;5055280;28;45427;-79
2021/06/19 00:15:18;;;;;;;;;0.00;0.00;;;;;22.13;58.81;101143.78;5056626;28;46940;-79
2021/06/19 00:17:45;;;;;;;;;0.00;0.00;;;;;22.17;58.57;101143.69;5055044;28;45336;-78
2021/06/19 00:20:13;;;;;;;;;0.00;0.00;;;;;22.03;58.40;101129.13;5057134;28;45581;-78
2021/06/19 00:22:39;;;;;;;;;0.00;0.00;;;;;21.81;59.37;101121.88;5055218;28;45706;-79
2021/06/19 00:25:06;;;;;;;;;0.00;0.00;;;;;21.83;59.45;101137.69;5051673;28;45438;-78
2021/06/19 00:27:31;;;;;;;;;0.00;0.00;;;;;21.82;59.07;101125.38;5056252;28;45486;-78
2021/06/19 00:29:57;;;;;;;;;0.00;0.00;;;;;21.70;59.76;101126.59;5054434;28;45898;-78
2021/06/19 00:32:22;;;;;;;;;0.00;0.00;;;;;21.73;59.69;101127.38;5055118;28;45513;-79
2021/06/19 00:34:48;;;;;;;;;0.00;0.00;;;;;21.80;60.16;101141.31;5058040;28;46133;-78
2021/06/19 00:37:13;;;;;;;;;0.00;0.00;;;;;21.64;59.86;101101.19;5054080;28;45403;-80
2021/06/19 00:39:39;;;;;;;;;0.00;0.00;;;;;21.87;59.87;101140.22;5053766;28;45473;-79
2021/06/19 00:42:05;;;;;;;;;0.00;0.00;;;;;21.89;60.22;101135.72;5053440;28;45308;-79
2021/06/19 00:44:31;;;;;;;;;0.00;0.00;;;;;21.90;60.00;101131.31;5054606;28;46068;-79
2021/06/19 00:46:57;;;;;;;;;0.00;0.00;;;;;21.80;60.25;101108.69;5057945;28;45294;-79
2021/06/19 00:49:24;;;;;;;;;0.00;0.00;;;;;21.87;60.65;101121.66;5055140;28;45747;-80
2021/06/19 00:51:50;;;;;;;;;0.00;0.00;;;;;21.83;60.69;101109.44;5054582;28;46001;-79
2021/06/19 00:54:15;;;;;;;;;0.00;0.00;;;;;21.77;60.17;101112.28;5054094;28;45498;-79
2021/06/19 00:56:42;;;;;;;;;0.00;0.00;;;;;21.80;60.21;101129.88;5054470;28;45379;-78
2021/06/19 00:59:09;;;;;;;;;0.00;0.00;;;;;21.79;60.64;101125.47;5056333;28;45339;-78
2021/06/19 01:01:35;;;;;;;;;0.00;0.00;;;;;21.76;60.94;101145.88;5055976;28;45363;-78
2021/06/19 01:04:03;;;;;;;;;0.00;0.00;;;;;21.76;60.23;101137.06;5047899;28;46186;-77
2021/06/19 01:06:29;;;;;;;;;0.00;0.00;;;;;21.72;61.38;101135.38;5053986;28;45418;-77
2021/06/19 01:08:54;;;;;;;;;0.00;0.00;;;;;21.76;60.79;101145.00;5052078;28;45544;-78
2021/06/19 01:11:22;;;;;;;;;0.00;0.00;;;;;21.75;60.68;101130.88;5055579;28;45434;-78
2021/06/19 01:13:52;;;;;;;;;0.00;0.00;;;;;21.73;60.84;101127.38;5057359;28;45300;-78
2021/06/19 01:16:19;;;;;;;;;0.00;0.00;;;;;21.65;60.70;101114.38;5053889;28;45444;-80
2021/06/19 01:18:44;;;;;;;;;0.00;0.00;;;;;21.70;61.22;101113.38;5055491;28;45383;-80
2021/06/19 01:21:14;;;;;;;;;0.00;0.00;;;;;21.66;61.09;101123.22;5038870;28;45476;-77
2021/06/19 01:23:41;;;;;;;;;0.00;0.00;;;;;21.66;61.43;101115.25;5053777;28;45966;-78
2021/06/19 01:26:06;;;;;;;;;0.00;0.00;;;;;21.65;61.80;101113.50;5056526;28;46689;-78
2021/06/19 01:28:32;;;;;;;;;0.00;0.00;;;;;21.64;61.23;101115.31;5055255;28;45281;-78
2021/06/19 01:30:57;;;;;;;;;0.00;0.00;;;;;21.65;61.56;101108.22;5055776;28;45355;-78
2021/06/19 01:33:22;;;;;;;;;0.00;0.00;;;;;21.49;61.29;101103.41;5053906;28;45293;-77
2021/06/19 01:35:48;;;;;;;;;0.00;0.00;;;;;21.46;61.41;101107.94;5053761;28;45336;-77
2021/06/19 01:38:13;;;;;;;;;0.00;0.00;;;;;21.50;61.67;101113.09;5054948;28;45696;-80
2021/06/19 01:40:38;;;;;;;;;0.00;0.00;;;;;21.46;62.29;101126.47;5058009;28;45474;-79
2021/06/19 01:43:04;;;;;;;;;0.00;0.00;;;;;21.46;62.12;101121.16;5033864;28;48355;-79
2021/06/19 01:45:32;;;;;;;;;0.00;0.00;;;;;21.51;62.05;101127.19;5053759;28;45525;-80
2021/06/19 01:48:07;;;;;;;;;0.00;0.00;;;;;21.51;61.61;101132.50;5055219;28;45434;-77
2021/06/19 01:50:33;;;;;;;;;0.00;0.00;;;;;21.55;62.12;101127.97;5053414;28;45502;-77
2021/06/19 01:53:00;;;;;;;;;0.00;0.00;;;;;21.54;61.70;101126.22;5056381;28;45767;-78
2021/06/19 01:55:26;;;;;;;;;0.00;0.00;;;;;21.50;61.38;101136.06;5054445;28;45359;-78
2021/06/19 01:57:55;;;;;;;;;0.00;0.00;;;;;21.48;61.29;101132.59;5055330;28;45564;-78
2021/06/19 02:00:23;;;;;;;;;0.00;0.00;;;;;21.51;61.35;101151.03;5053598;28;45541;-79
2021/06/19 02:02:48;;;;;;;;;0.00;0.00;;;;;21.29;61.10;101132.28;5053390;28;46093;-79
2021/06/19 02:05:15;;;;;;;;;0.00;0.00;;;;;21.42;61.44;101149.53;5052772;28;45475;-79
2021/06/19 02:07:47;;;;;;;;;0.00;0.00;;;;;21.42;61.36;101144.25;5055812;28;45399;-79
2021/06/19 02:10:13;;;;;;;;;0.00;0.00;;;;;21.43;61.69;101142.44;5053564;28;45443;-78
2021/06/19 02:12:38;;;;;;;;;0.00;0.00;;;;;21.30;61.69;101115.47;5055169;28;46054;-80
2021/06/19 02:15:05;;;;;;;;;0.00;0.00;;;;;21.38;60.96;101147.91;5053561;28;45390;-79
2021/06/19 02:17:30;;;;;;;;;0.00;0.00;;;;;21.33;60.85;101148.03;5053638;28;45573;-78
2021/06/19 02:19:55;;;;;;;;;0.00;0.00;;;;;20.94;61.25;101103.28;5056682;28;45407;-78
2021/06/19 02:22:21;;;;;;;;;0.00;0.00;;;;;21.07;61.44;101141.72;5054760;28;48866;-79
2021/06/19 02:24:46;;;;;;;;;0.00;0.00;;;;;20.96;61.67;101128.81;5053226;28;45412;-77
2021/06/19 02:27:14;;;;;;;;;0.00;0.00;;;;;20.95;62.26;101124.41;5053571;28;46551;-79
2021/06/19 02:29:40;;;;;;;;;0.00;0.00;;;;;20.94;61.85;101127.13;5053203;28;45554;-80
2021/06/19 02:32:08;;;;;;;;;0.00;0.00;;;;;20.95;62.15;101124.41;5055098;28;46190;-80
2021/06/19 02:34:34;;;;;;;;;0.00;0.00;;;;;20.81;61.90;101111.56;5056120;28;45477;-80
2021/06/19 02:37:00;;;;;;;;;0.00;0.00;;;;;20.67;62.31;101106.66;5053107;28;45403;-79
2021/06/19 02:39:25;;;;;;;;;0.00;0.00;;;;;20.66;62.70;101133.16;5053078;28;45347;-79
2021/06/19 02:41:50;;;;;;;;;0.00;0.00;;;;;20.63;63.30;101139.41;5052745;28;46181;-80
2021/06/19 02:44:16;;;;;;;;;0.00;0.00;;;;;20.69;63.47;101144.53;5054377;28;45454;-80
2021/06/19 02:46:41;;;;;;;;;0.00;0.00;;;;;20.72;63.12;101149.75;5055251;28;45346;-79
2021/06/19 02:49:07;;;;;;;;;0.00;0.00;;;;;20.79;63.07;101149.56;5037266;28;45596;-80
2021/06/19 02:51:32;;;;;;;;;0.00;0.00;;;;;20.94;63.03;101156.22;5053848;28;46245;-79
2021/06/19 02:53:58;;;;;;;;;0.75;0.00;;;;;20.93;62.88;101138.63;5052488;28;45525;-79
2021/06/19 02:56:23;;;;;;;;;0.00;0.00;;;;;21.07;62.77;101154.97;5053410;28;45502;-79
2021/06/19 02:58:49;;;;;;;;;0.00;0.00;;;;;21.11;62.51;101166.34;5056489;28;45505;-79
2021/06/19 03:01:14;;;;;;;;;0.00;0.00;;;;;21.07;62.26;101162.06;5052538;28;45533;-80
2021/06/19 03:03:39;;;;;;;;;0.00;0.00;;;;;20.79;62.25;101131.91;5052268;28;45411;-77
2021/06/19 03:06:05;;;;;;;;;0.00;0.00;;;;;20.79;62.98;101158.34;5054118;28;45787;-79
2021/06/19 03:08:30;;;;;;;;;0.00;0.00;;;;;20.65;63.27;101158.75;5052975;28;45344;-78
2021/06/19 03:10:56;;;;;;;;;0.00;0.00;;;;;20.47;62.92;101126.59;5055933;28;46338;-78
2021/06/19 03:13:21;;;;;;;;;0.00;0.00;;;;;20.62;63.53;101154.38;5054343;28;45494;-78
2021/06/19 03:15:47;;;;;;;;;0.00;0.00;;;;;20.66;63.82;101156.94;5052556;28;45405;-78
2021/06/19 03:18:12;;;;;;;;;0.00;0.00;;;;;20.68;63.25;101165.72;5037211;28;45469;-78
2021/06/19 03:20:37;;;;;;;;;1.00;0.00;;;;;20.74;63.49;101163.78;5052537;28;46115;-77
2021/06/19 03:23:05;;;;;;;;;0.00;0.00;;;;;20.77;63.21;101162.84;5055111;28;45481;-78
2021/06/19 03:25:33;;;;;;;;;0.00;0.00;;;;;20.64;63.24;101152.59;5053998;28;45400;-78
2021/06/19 03:28:03;;;;;;;;;0.00;0.00;;;;;20.59;63.88;101143.03;5052625;28;45593;-77
2021/06/19 03:30:30;;;;;;;;;0.00;0.00;;;;;20.56;64.01;101138.72;5036963;28;46320;-78
2021/06/19 03:32:56;;;;;;;;;0.00;0.00;;;;;20.50;63.98;101125.66;5053603;28;45418;-78
2021/06/19 03:35:22;;;;;;;;;0.00;0.00;;;;;20.56;64.03;101129.91;5053223;28;45706;-78
2021/06/19 03:37:48;;;;;;;;;0.00;0.00;;;;;20.60;64.03;101142.13;5056680;28;45484;-78
2021/06/19 03:40:15;;;;;;;;;0.00;0.00;;;;;20.59;64.40;101150.97;5055107;28;46418;-78
2021/06/19 03:42:41;;;;;;;;;0.00;0.00;;;;;20.51;65.35;101153.81;5055566;28;45534;-77
2021/06/19 03:45:08;;;;;;;;;0.00;0.00;;;;;20.33;65.28;101141.94;5057137;28;45426;-79
2021/06/19 03:47:34;;;;;;;;;0.00;0.00;;;;;20.34;64.97;101159.56;5055819;28;45415;-79
2021/06/19 03:49:59;;;;;;;;;0.00;0.00;;;;;20.29;65.37;101138.53;5058005;28;46353;-77
2021/06/19 03:52:25;;;;;;;;;0.00;0.00;;;;;20.23;65.09;101136.91;5056494;28;45348;-79
2021/06/19 03:54:50;;;;;;;;;0.00;0.00;;;;;20.26;65.18;101146.53;5055725;28;45546;-79
2021/06/19 03:57:26;;;;;;;;;0.00;0.00;;;;;20.31;65.41;101152.59;5040702;28;45371;-79
2021/06/19 03:59:53;;;;;;;;;0.00;0.00;;;;;20.34;64.73;101139.25;5055123;28;46102;-78
2021/06/19 04:02:20;;;;;;;;;0.00;0.00;;;;;20.46;65.00;101140.72;5055790;28;45603;-77
2021/06/19 04:04:46;;;;;;;;;0.00;0.00;;;;;20.58;64.56;101146.59;5058295;28;45343;-78
2021/06/19 04:07:12;;;;;;;;;0.00;0.00;;;;;20.57;64.59;101145.72;5040041;28;45408;-78
2021/06/19 04:09:38;;;;;;;;;0.00;0.00;;;;;20.47;64.41;101131.91;5056483;28;45934;-79
2021/06/19 04:12:04;;;;;;;;;0.00;0.00;;;;;20.68;64.68;101152.50;5054911;28;45710;-79
2021/06/19 04:14:30;;;;;;;;;0.00;0.00;;;;;20.67;64.32;101151.63;5055287;28;45468;-79
2021/06/19 04:16:55;;;;;;;;;0.00;0.00;;;;;20.68;64.21;101153.38;5058816;28;45423;-81
2021/06/19 04:19:20;;;;;;;;;0.00;0.00;;;;;20.67;64.17;101148.97;5054791;28;46255;-78
2021/06/19 04:21:45;;;;;;;;;0.00;0.00;;;;;20.54;64.75;101135.22;5055001;28;45400;-79
2021/06/19 04:24:11;;;;;;;;;0.00;0.00;;;;;20.59;64.95;101153.63;5054843;28;45351;-79
2021/06/19 04:26:36;;;;;;;;;0.00;0.00;;;;;20.58;64.88;101154.53;5055296;28;45371;-79
2021/06/19 04:29:01;;;;;;;;;0.00;0.00;;;;;20.57;65.55;101158.06;5057877;28;45582;-79
2021/06/19 04:31:27;;;;;;;;;0.00;0.00;;;;;20.53;65.11;101161.72;5056950;28;45229;-79
2021/06/19 04:33:52;;;;;;;;;0.00;0.00;;;;;20.44;65.42;101158.41;5054867;28;45399;-78
2021/06/19 04:36:19;;;;;;;;;0.00;0.00;;;;;20.45;65.12;101154.84;5050881;28;45561;-79
2021/06/19 04:38:44;;;;;;;;;0.00;0.00;;;;;20.43;65.08;101146.09;5054888;28;45376;-79
2021/06/19 04:41:22;;;;;;;;;0.00;0.00;;;;;20.46;65.06;101143.34;5057061;28;45319;-79
2021/06/19 04:46:13;;;;;;;;;0.00;0.00;;;;;20.53;65.62;101152.00;5054515;28;45419;-78
2021/06/19 04:48:38;;;;;;;;;0.00;0.00;;;;;20.64;65.51;101157.88;5054329;28;46154;-79
2021/06/19 04:51:04;;;;;;;;;1.00;0.50;;;;;20.80;65.46;101157.47;5054081;28;45618;-78
2021/06/19 04:53:29;;;;;;;;;0.00;0.00;;;;;20.80;65.14;101146.00;5054786;28;45396;-78
2021/06/19 04:55:55;;;;;;;;;0.00;0.00;;;;;20.83;65.38;101136.19;5058782;28;45261;-79
2021/06/19 04:58:20;;;;;;;;;0.00;0.00;;;;;20.87;65.12;101140.50;5057075;28;45410;-79
2021/06/19 05:00:46;;;;;;;;;0.00;0.00;;;;;21.09;64.62;101166.38;5053784;28;45423;-78
2021/06/19 05:03:13;;;;;;;;;0.00;0.00;;;;;21.14;64.50;101168.91;5054610;28;45383;-77
2021/06/19 05:05:38;;;;;;;;;0.00;0.00;;;;;20.99;64.69;101152.56;5055143;28;45490;-78
2021/06/19 05:08:04;;;;;;;;;0.00;0.00;;;;;21.08;64.19;101156.72;5056385;28;45856;-79
2021/06/19 05:10:30;;;;;;;;;0.00;0.00;;;;;21.07;64.43;101152.31;5055688;28;45338;-78
2021/06/19 05:12:55;;;;;;;;;0.00;0.00;;;;;21.24;63.83;101173.00;5054260;28;45316;-78
2021/06/19 05:15:24;;;;;;;;;0.25;0.00;;;;;21.06;63.89;101165.59;5054170;28;45355;-78
2021/06/19 05:17:50;;;;;;;;;1.00;0.00;;;;;20.90;64.25;101152.81;5053885;28;46276;-78
2021/06/19 05:20:15;;;;;;;;;0.25;0.00;;;;;21.01;64.73;101163.09;5055167;28;45498;-79
2021/06/19 05:22:41;;;;;;;;;0.00;0.00;;;;;20.88;64.72;101147.53;5056512;28;45729;-78
2021/06/19 05:25:07;;;;;;;;;0.00;0.00;;;;;21.12;63.98;101168.94;5054164;28;45529;-79
2021/06/19 05:27:32;;;;;;;;;0.00;0.00;;;;;21.17;63.68;101160.88;5053867;28;46213;-79
2021/06/19 05:29:58;;;;;;;;;0.00;0.00;;;;;21.28;63.62;101163.19;5055002;28;45418;-79
2021/06/19 05:32:24;;;;;;;;;0.00;0.00;;;;;21.26;63.65;101172.97;5038446;28;45629;-79
2021/06/19 05:34:50;;;;;;;;;0.00;0.00;;;;;21.30;63.57;101171.06;5053351;28;45398;-80
2021/06/19 05:37:15;;;;;;;;;0.00;0.00;;;;;21.44;63.87;101189.22;5056024;28;45472;-78
2021/06/19 05:39:41;;;;;;;;;0.00;0.00;;;;;21.48;63.38;101175.84;5053540;28;45582;-79
2021/06/19 05:42:06;;;;;;;;;0.00;0.00;;;;;21.61;62.79;101175.44;5053826;28;45409;-78
2021/06/19 05:44:32;;;;;;;;;0.00;0.00;;;;;21.65;61.82;101177.97;5053283;28;45509;-77
2021/06/19 05:46:57;;;;;;;;;0.75;0.75;;;;;21.45;62.34;101157.41;5056553;28;46098;-79
2021/06/19 05:49:22;;;;;;;;;0.00;0.00;;;;;21.41;62.00;101153.13;5053870;28;45566;-78
2021/06/19 05:51:48;;;;;;;;;0.00;0.00;;;;;20.90;62.08;101089.31;5046782;28;45682;-78
2021/06/19 05:54:13;;;;;;;;;0.00;0.00;;;;;21.41;62.12;101171.66;5044969;28;45430;-78
2021/06/19 05:56:39;;;;;;;;;0.00;0.00;;;;;21.49;61.83;101156.38;5050207;28;45466;-79
2021/06/19 05:59:04;;;;;;;;;0.00;0.00;;;;;21.47;61.73;101147.59;5044100;28;45359;-78
2021/06/19 06:01:32;;;;;;;;;0.00;0.00;;;;;21.67;61.25;101156.72;5053927;28;45590;-79
2021/06/19 06:03:58;;;;;;;;;0.00;0.00;;;;;21.65;61.31;101151.47;5053453;28;45629;-79
2021/06/19 06:06:24;;;;;;;;;0.00;0.00;;;;;21.70;61.48;101158.41;5052705;28;45455;-78
2021/06/19 06:08:50;;;;;;;;;0.00;0.00;;;;;21.81;61.11;101158.97;5052593;28;45371;-79
2021/06/19 06:11:15;;;;;;;;;0.00;0.00;;;;;21.82;61.31;101167.78;5054792;28;45283;-78
2021/06/19 06:13:41;;;;;;;;;0.00;0.00;;;;;21.77;61.53;101167.91;5056652;28;45573;-78
2021/06/19 06:16:06;;;;;;;;;0.00;0.00;;;;;21.64;60.85;101148.88;5053718;28;46122;-79
2021/06/19 06:18:31;;;;;;;;;0.00;0.00;;;;;21.78;61.39;101151.13;5054368;28;45577;-78
2021/06/19 06:20:57;;;;;;;;;0.00;0.00;;;;;21.86;61.12;101156.16;5034511;28;45437;-78
2021/06/19 06:23:23;;;;;;;;;0.00;0.00;;;;;21.68;60.92;101150.50;5043972;28;45427;-80
2021/06/19 06:25:52;;;;;;;;;0.00;0.00;;;;;21.68;61.69;101137.25;5046240;28;46598;-79
2021/06/19 06:28:18;;;;;;;;;0.00;0.00;;;;;21.76;61.73;101137.94;5048411;28;45954;-78
2021/06/19 06:30:44;;;;;;;;;0.00;0.00;;;;;21.64;61.40;101125.91;5053252;28;45669;-78
2021/06/19 06:33:10;;;;;;;;;0.00;0.00;;;;;21.84;61.79;101144.75;5052310;28;45343;-80
2021/06/19 06:35:35;;;;;;;;;0.00;0.00;;;;;21.83;61.40;101129.75;5054552;28;46010;-79
2021/06/19 06:38:01;;;;;;;;;0.00;0.00;;;;;21.94;61.34;101134.72;5054663;28;45429;-79
2021/06/19 06:40:26;;;;;;;;;0.00;0.00;;;;;21.52;61.87;101107.75;5046904;28;45382;-76
2021/06/19 06:42:52;;;;;;;;;0.00;0.00;;;;;21.61;61.81;101146.31;5046562;28;45506;-77
2021/06/19 06:45:17;;;;;;;;;0.00;0.00;;;;;21.57;62.18;101142.91;5041395;28;45488;-78
2021/06/19 06:47:43;;;;;;;;;0.00;0.00;;;;;21.57;61.83;101157.94;5052759;28;45609;-78
2021/06/19 06:50:09;;;;;;;;;0.75;0.75;;;;;21.41;62.01;101149.59;5053373;28;45490;-82
2021/06/19 06:52:36;;;;;;;;;0.00;0.00;;;;;21.32;62.16;101162.19;5049964;28;45486;-82
2021/06/19 06:55:06;;;;;;;;;0.00;0.00;;;;;21.39;62.83;101162.88;5051455;28;46554;-79
2021/06/19 06:57:31;;;;;;;;;0.00;0.00;;;;;21.51;62.08;101175.75;5055588;28;45553;-79
2021/06/19 06:59:56;;;;;;;;;0.00;0.00;;;;;21.54;62.27;101188.03;5055337;28;45522;-79
2021/06/19 07:02:22;;;;;;;;;1.00;0.00;;;;;21.54;62.13;101169.50;5053333;28;45339;-79
2021/06/19 07:04:49;;;;;;;;;0.50;0.00;;;;;21.72;61.73;101183.06;5055420;28;45409;-82
2021/06/19 07:07:15;;;;;;;;;0.00;0.00;;;;;21.35;61.65;101118.88;5054950;28;45423;-81
2021/06/19 07:09:40;;;;;;;;;0.00;0.00;;;;;21.74;61.15;101155.59;5051625;28;45538;-78
2021/06/19 07:12:06;;;;;;;;;0.00;0.00;;;;;21.73;60.79;101143.28;5035682;28;45615;-81
2021/06/19 07:14:31;;;;;;;;;0.00;0.00;;;;;21.85;60.64;101165.91;5055733;28;46520;-78
2021/06/19 07:16:57;;;;;;;;;0.00;0.00;;;;;21.95;60.33;101166.47;5057230;28;45426;-77
2021/06/19 07:19:22;;;;;;;;;0.00;0.00;;;;;22.32;60.33;101180.28;5055660;28;45521;-79
2021/06/19 07:21:48;;;;;;;;;0.00;0.00;;;;;22.39;59.13;101155.28;5044465;28;46849;-85
2021/06/19 07:24:13;;;;;;;;;0.00;0.00;;;;;22.51;59.67;101161.94;5047711;28;45532;-80
2021/06/19 07:26:38;;;;;;;;;0.25;0.00;;;;;22.47;59.57;101141.75;5049554;28;45538;-77
2021/06/19 07:29:04;;;;;;;;;0.00;0.00;;;;;22.59;59.31;101164.38;5048387;28;46041;-79
2021/06/19 07:31:29;;;;;;;;;0.00;0.00;;;;;22.65;58.85;101163.28;5055449;28;45775;-78
2021/06/19 07:33:55;;;;;;;;;0.00;0.00;;;;;22.56;58.93;101127.31;5051237;28;45915;-78
2021/06/19 07:36:21;;;;;;;;;0.00;0.00;;;;;22.82;58.88;101159.16;5049217;28;45532;-84
2021/06/19 07:38:46;;;;;;;;;0.50;0.00;;;;;22.86;58.52;101139.53;5042494;28;45449;-77
2021/06/19 07:41:12;;;;;;;;;0.00;0.00;;;;;22.78;58.75;101116.81;5056555;28;45513;-80
2021/06/19 07:43:37;;;;;;;;;0.00;0.00;;;;;22.93;58.15;101129.56;5056271;28;45412;-76
2021/06/19 07:46:03;;;;;;;;;0.25;0.25;;;;;22.97;57.77;101108.16;5055812;28;45356;-79
2021/06/19 07:48:28;;;;;;;;;0.00;0.00;;;;;22.89;58.48;101087.22;5038803;28;45622;-80
2021/06/19 07:50:54;;;;;;;;;0.00;0.00;;;;;22.78;58.07;101084.97;5054014;28;46068;-79
2021/06/19 07:53:20;;;;;;;;;1.75;0.00;;;;;22.72;58.36;101058.66;5053345;28;45950;-78
2021/06/19 07:55:45;;;;;;;;;0.00;0.00;;;;;22.74;57.99;101056.81;5054433;28;45379;-80
2021/06/19 07:58:11;;;;;;;;;0.00;0.00;;;;;22.81;58.22;101061.91;5049930;28;52135;-79
2021/06/19 08:00:36;;;;;;;;;0.00;0.00;;;;;22.70;58.46;101043.72;5048386;28;45926;-81
2021/06/19 08:03:02;;;;;;;;;1.00;1.00;;;;;22.76;58.69;101054.97;5053069;28;45541;-79
2021/06/19 08:05:28;;;;;;;;;0.00;0.00;;;;;22.79;58.52;101061.97;5052113;28;45496;-84
2021/06/19 08:07:54;;;;;;;;;0.00;0.00;;;;;22.78;58.69;101060.19;5046728;28;45427;-78
2021/06/19 08:10:20;;;;;;;;;0.00;0.00;;;;;22.73;58.98;101065.69;5053530;28;45574;-81
2021/06/19 08:12:45;;;;;;;;;0.00;0.00;;;;;22.83;59.04;101076.84;5054305;28;46560;-78
2021/06/19 08:15:11;;;;;;;;;0.00;0.00;;;;;22.94;58.45;101068.44;5046410;28;45398;-78
2021/06/19 08:17:37;;;;;;;;;0.75;0.00;;;;;22.94;58.95;101070.25;5053884;28;45439;-78
2021/06/19 08:20:04;;;;;;;;;0.50;0.00;;;;;22.86;58.94;101070.53;5053499;28;45614;-78
2021/06/19 08:22:30;;;;;;;;;0.00;0.00;;;;;22.79;58.81;101069.91;5055591;28;47316;-77
2021/06/19 08:24:55;;;;;;;;;1.75;0.00;;;;;22.61;58.76;101029.00;5035348;28;45649;-76
2021/06/19 08:27:25;;;;;;;;;0.00;0.00;;;;;22.49;59.31;101017.91;5049473;28;45405;-78
2021/06/19 08:29:53;;;;;;;;;0.00;0.00;;;;;22.58;59.05;101037.97;5051291;28;45528;-78
2021/06/19 08:32:19;;;;;;;;;0.00;0.00;;;;;22.30;59.48;101014.22;5054021;28;45698;-77
2021/06/19 08:34:45;;;;;;;;;0.00;0.00;;;;;22.51;60.05;101068.25;5046338;28;45273;-77
2021/06/19 08:37:10;;;;;;;;;0.00;0.00;;;;;22.40;60.16;101074.81;5052050;28;45452;-79
2021/06/19 08:39:36;;;;;;;;;0.00;0.00;;;;;22.52;60.39;101075.28;5055501;28;51546;-79
2021/06/19 08:42:02;;;;;;;;;0.00;0.00;;;;;22.52;60.26;101054.94;5047796;28;45549;-80
2021/06/19 08:44:29;;;;;;;;;1.00;0.00;;;;;22.55;59.78;101034.50;5051495;28;45468;-78
2021/06/19 08:46:55;;;;;;;;;0.00;0.00;;;;;22.56;59.92;101033.59;5055132;28;45533;-78
2021/06/19 08:49:21;;;;;;;;;0.00;0.00;;;;;22.75;59.71;101037.31;5035852;28;45601;-78
2021/06/19 08:51:47;;;;;;;;;1.00;1.00;;;;;22.90;59.36;101040.28;5049942;28;45542;-84
2021/06/19 08:54:13;;;;;;;;;0.00;0.00;;;;;22.99;59.34;101039.06;5051774;28;45382;-78
2021/06/19 08:56:40;;;;;;;;;0.00;0.00;;;;;23.07;59.37;101044.09;5043138;28;45348;-82
2021/06/19 08:59:06;;;;;;;;;0.50;0.50;;;;;23.08;59.01;101045.81;5055737;28;45421;-80
2021/06/19 09:01:31;;;;;;;;;0.00;0.00;;;;;22.99;58.77;101037.28;5046664;28;45727;-80
2021/06/19 09:03:56;;;;;;;;;0.00;0.00;;;;;22.94;58.91;101043.72;5046479;28;45463;-82
2021/06/19 09:06:25;;;;;;;;;0.00;0.00;;;;;22.85;59.28;101026.34;5046702;28;45483;-84
2021/06/19 09:09:09;;;;;;;;;0.00;0.00;;;;;22.81;59.24;101024.75;5042581;28;45499;-82
2021/06/19 09:11:45;;;;;;;;;0.00;0.00;;;;;22.73;59.72;101006.47;5046594;28;46306;-81
2021/06/19 09:14:22;;;;;;;;;1.00;0.00;;;;;22.89;59.65;101027.97;5055065;28;45676;-80
2021/06/19 09:17:05;;;;;;;;;1.75;0.00;;;;;22.95;59.15;101022.41;5055684;28;45613;-82
2021/06/19 09:19:37;;;;;;;;;0.00;0.00;;;;;23.01;59.32;101024.84;5054046;28;45447;-81
2021/06/19 09:22:09;;;;;;;;;1.25;0.00;;;;;23.03;59.58;101020.31;5032892;28;47251;-82
2021/06/19 09:24:54;;;;;;;;;0.00;0.00;;;;;23.08;59.18;101027.22;5050415;28;45312;-81
2021/06/19 09:27:36;;;;;;;;;0.00;0.00;;;;;23.07;58.93;101026.38;5034516;28;45450;-81
2021/06/19 09:30:10;;;;;;;;;0.25;0.00;;;;;23.05;58.99;101017.59;5051985;28;45581;-80
2021/06/19 09:32:49;;;;;;;;;0.00;0.00;;;;;23.09;59.11;101013.06;5044923;28;46271;-80
2021/06/19 09:35:24;;;;;;;;;0.00;0.00;;;;;23.17;59.17;101013.59;5027908;28;45636;-81
2021/06/19 09:37:51;;;;;;;;;0.00;0.00;;;;;23.23;59.10;101023.97;5055668;28;45568;-80
2021/06/19 09:40:19;;;;;;;;;0.00;0.00;;;;;23.34;59.18;101028.00;5049656;28;45550;-80
2021/06/19 09:42:44;;;;;;;;;0.75;0.00;;;;;23.43;58.83;101029.44;5050958;28;46749;-80
2021/06/19 09:45:24;;;;;;;;;0.00;0.00;;;;;23.26;58.95;100993.78;5043578;28;45360;-83
2021/06/19 09:47:50;;;;;;;;;0.75;0.00;;;;;23.43;58.59;101019.69;5051690;28;45455;-79
2021/06/19 09:50:20;;;;;;;;;0.00;0.00;;;;;23.17;58.88;100992.34;5054686;28;45398;-80
2021/06/19 09:52:47;;;;;;;;;0.00;0.00;;;;;23.33;59.38;101013.84;5055570;28;47306;-79
2021/06/19 09:55:15;;;;;;;;;0.00;0.00;;;;;23.41;58.72;101022.41;5054351;28;45501;-80
2021/06/19 09:57:42;;;;;;;;;0.00;0.00;;;;;23.48;58.95;101015.03;5048289;28;45465;-79
2021/06/19 10:00:10;;;;;;;;;0.00;0.00;;;;;23.39;58.70;100991.50;5052787;28;45493;-79
2021/06/19 10:02:35;;;;;;;;;0.00;0.00;;;;;23.65;58.67;101026.75;5050906;28;45569;-79
2021/06/19 10:05:01;;;;;;;;;1.00;0.00;;;;;23.68;58.98;101013.34;5036132;28;45927;-79
2021/06/19 10:07:28;;;;;;;;;2.00;0.25;;;;;23.78;58.52;101021.78;5053755;28;45553;-79
2021/06/19 10:09:55;;;;;;;;;0.00;0.00;;;;;23.86;58.68;101014.31;5049942;28;45455;-80
2021/06/19 10:12:26;;;;;;;;;0.50;0.50;;;;;23.89;58.06;100987.59;5052830;28;45835;-80
2021/06/19 10:14:57;;;;;;;;;0.00;0.00;;;;;24.23;57.83;101006.56;5051109;28;45561;-79
2021/06/19 10:17:23;;;;;;;;;1.00;1.00;;;;;24.36;57.42;101001.56;5051633;28;45635;-81
2021/06/19 10:19:50;;;;;;;;;0.00;0.00;;;;;24.45;57.03;100996.75;5054075;28;45456;-80
2021/06/19 10:22:15;;;;;;;;;1.00;0.00;;;;;24.74;56.65;100994.53;5029422;28;47994;-80
2021/06/19 10:24:44;;;;;;;;;0.00;0.00;;;;;24.98;56.38;100994.31;5047402;28;45511;-79
2021/06/19 10:27:14;;;;;;;;;0.00;0.00;;;;;24.75;55.77;100969.63;5053485;28;45355;-80
2021/06/19 10:29:45;;;;;;;;;0.50;0.50;;;;;25.02;55.72;100987.91;5039179;28;45577;-80
2021/06/19 10:32:11;;;;;;;;;2.00;0.00;;;;;25.16;55.68;100984.56;5053146;28;46299;-79
2021/06/19 10:34:38;;;;;;;;;1.25;0.25;;;;;25.05;55.67;100947.78;5054557;28;45360;-79
2021/06/19 10:37:08;;;;;;;;;0.00;0.00;;;;;25.31;55.22;100977.63;5050641;28;45451;-76
2021/06/19 10:39:39;;;;;;;;;0.00;0.00;;;;;25.28;54.69;100962.66;5053481;28;45578;-78
2021/06/19 10:42:05;;;;;;;;;0.00;0.00;;;;;25.31;54.98;100966.97;5041436;28;46279;-77
2021/06/19 10:44:50;;;;;;;;;0.00;0.00;;;;;25.39;54.45;100963.91;5050929;28;45619;-76
2021/06/19 10:47:20;;;;;;;;;1.25;0.00;;;;;25.41;54.49;100962.00;5050514;28;45458;-78
2021/06/19 10:49:47;;;;;;;;;0.50;0.00;;;;;25.24;54.75;100952.22;5053995;28;45329;-80
2021/06/19 10:52:30;;;;;;;;;0.25;0.25;;;;;25.22;54.42;100951.44;5049539;28;45447;-80
2021/06/19 10:55:19;;;;;;;;;0.00;0.00;;;;;25.30;55.11;100949.25;5048831;28;45464;-78
2021/06/19 10:57:48;;;;;;;;;0.00;0.00;;;;;25.41;55.14;100946.91;5028917;28;45531;-77
2021/06/19 11:00:36;;;;;;;;;0.75;0.75;;;;;25.58;54.48;100946.97;5049973;28;45590;-78
2021/06/19 11:03:05;;;;;;;;;0.50;0.25;;;;;25.63;53.81;100939.66;5041543;28;46315;-76
2021/06/19 11:05:39;;;;;;;;;0.00;0.00;;;;;25.39;54.22;100932.78;5040588;28;45486;-77
2021/06/19 11:08:05;;;;;;;;;0.00;0.00;;;;;25.33;54.43;100926.91;5052304;28;45576;-78
2021/06/19 11:10:51;;;;;;;;;0.00;0.00;;;;;25.67;53.81;100936.72;5053193;28;45673;-77
2021/06/19 11:13:32;;;;;;;;;0.00;0.00;;;;;25.80;53.52;100933.41;5046292;28;45410;-77
2021/06/19 11:16:02;;;;;;;;;1.00;1.00;;;;;25.76;53.43;100922.03;5044146;28;45380;-77
2021/06/19 11:18:52;;;;;;;;;0.00;0.00;;;;;25.67;53.53;100919.88;5026984;28;47298;-77
2021/06/19 11:21:27;;;;;;;;;0.00;0.00;;;;;25.76;53.63;100923.88;5043443;28;45255;-78
2021/06/19 11:24:02;;;;;;;;;1.25;1.00;;;;;25.79;53.35;100924.53;5050381;28;46014;-77
2021/06/19 11:27:00;;;;;;;;;0.25;0.25;;;;;25.79;53.45;100926.38;5049598;28;45587;-77